Time;durP1;ratioP1;P1;durP2;ratioP2;P2;SDS_P1;SDS_P2;PMS_P1;PMS_P2;Temp;Humidity;BMP_temperature;BMP_pressure;BME280_temperature;BME280_humidity;BME280_pressure;Samples;Min_cycle;Max_cycle;Signal;HPM_P1;HPM_P2
2022/05/26 00:01:22;;;;;;;4.22;1.30;;;;;;;;;;5061176;28;20063;-61
2022/05/26 00:03:48;;;;;;;2.65;0.98;;;;;;;;;;5062460;28;20036;-61
2022/05/26 00:06:17;;;;;;;2.88;1.20;;;;;;;;;;5055941;28;20037;-61
2022/05/26 00:08:44;;;;;;;1.15;0.70;;;;;;;;;;5065037;28;20643;-61
2022/05/26 00:11:12;;;;;;;3.63;1.02;;;;;;;;;;5052043;28;20024;-61
2022/05/26 00:13:42;;;;;;;1.25;0.88;;;;;;;;;;5064422;28;20037;-61
2022/05/26 00:16:08;;;;;;;2.90;0.90;;;;;;;;;;5060535;28;20024;-61
2022/05/26 00:18:34;;;;;;;3.47;0.80;;;;;;;;;;5060354;28;20362;-62
2022/05/26 00:21:00;;;;;;;11.50;1.05;;;;;;;;;;5054960;28;20044;-62
2022/05/26 00:23:25;;;;;;;2.35;0.85;;;;;;;;;;5058191;28;20033;-61
2022/05/26 00:25:51;;;;;;;2.33;0.70;;;;;;;;;;5054926;28;20033;-61
2022/05/26 00:28:17;;;;;;;2.58;0.70;;;;;;;;;;5064138;28;20393;-61
2022/05/26 00:30:43;;;;;;;5.90;0.80;;;;;;;;;;5066079;28;20523;-61
2022/05/26 00:33:09;;;;;;;1.25;0.68;;;;;;;;;;5064965;28;20064;-61
2022/05/26 00:35:37;;;;;;;2.85;1.02;;;;;;;;;;5057828;28;20716;-61
2022/05/26 00:38:04;;;;;;;14.45;0.98;;;;;;;;;;5066558;28;20036;-61
2022/05/26 00:40:31;;;;;;;4.60;0.75;;;;;;;;;;5058489;28;20029;-61
2022/05/26 00:42:57;;;;;;;2.03;0.60;;;;;;;;;;5076956;28;20024;-61
2022/05/26 00:45:24;;;;;;;3.92;0.73;;;;;;;;;;5070160;28;20060;-61
2022/05/26 00:47:50;;;;;;;1.27;0.63;;;;;;;;;;5063778;28;20534;-61
2022/05/26 00:50:23;;;;;;;2.55;0.68;;;;;;;;;;5063745;28;20028;-61
2022/05/26 00:52:57;;;;;;;0.68;0.57;;;;;;;;;;5074357;28;20421;-61
2022/05/26 00:55:29;;;;;;;2.47;0.93;;;;;;;;;;5056290;28;20115;-61
2022/05/26 00:58:07;;;;;;;2.00;0.70;;;;;;;;;;5053747;28;20032;-61
2022/05/26 01:00:35;;;;;;;4.05;0.82;;;;;;;;;;5067292;28;20025;-61
2022/05/26 01:03:20;;;;;;;1.02;0.70;;;;;;;;;;5068715;28;20031;-61
2022/05/26 01:05:55;;;;;;;2.45;0.47;;;;;;;;;;5065999;28;20041;-62
2022/05/26 01:08:46;;;;;;;0.90;0.70;;;;;;;;;;5062296;28;20485;-61
2022/05/26 01:11:12;;;;;;;1.35;0.93;;;;;;;;;;5065665;28;20036;-61
2022/05/26 01:13:46;;;;;;;0.68;0.50;;;;;;;;;;5057541;28;20033;-62
2022/05/26 01:16:32;;;;;;;0.95;0.43;;;;;;;;;;5058083;28;20048;-61
2022/05/26 01:19:31;;;;;;;1.92;0.77;;;;;;;;;;5066685;28;20032;-61
2022/05/26 01:22:09;;;;;;;2.25;0.60;;;;;;;;;;5064241;28;20538;-61
2022/05/26 01:24:41;;;;;;;1.25;0.65;;;;;;;;;;5059659;28;20043;-61
2022/05/26 01:27:26;;;;;;;1.42;0.70;;;;;;;;;;5059071;28;20026;-61
2022/05/26 01:30:48;;;;;;;6.50;1.55;;;;;;;;;;5060452;28;20051;-61
2022/05/26 01:33:30;;;;;;;5.07;0.70;;;;;;;;;;5005613;28;20026;-61
2022/05/26 01:36:03;;;;;;;0.73;0.57;;;;;;;;;;4997650;28;20471;-61
2022/05/26 01:39:01;;;;;;;0.60;0.40;;;;;;;;;;5002249;28;20517;-61
2022/05/26 01:41:48;;;;;;;2.55;0.80;;;;;;;;;;4988160;28;20062;-61
2022/05/26 01:44:20;;;;;;;1.65;0.80;;;;;;;;;;4999953;28;20038;-61
2022/05/26 01:46:47;;;;;;;1.98;0.80;;;;;;;;;;4998319;28;20114;-61
2022/05/26 01:49:33;;;;;;;3.17;0.70;;;;;;;;;;4997368;28;20030;-61
2022/05/26 01:52:07;;;;;;;1.10;0.77;;;;;;;;;;4996909;28;20757;-62
2022/05/26 01:54:44;;;;;;;2.75;0.77;;;;;;;;;;4999614;28;20083;-61
2022/05/26 01:57:21;;;;;;;4.18;1.48;;;;;;;;;;4995579;28;20173;-61
2022/05/26 01:59:52;;;;;;;3.90;1.20;;;;;;;;;;4991028;28;20037;-61
2022/05/26 02:02:34;;;;;;;3.38;0.90;;;;;;;;;;4993777;28;20030;-61
2022/05/26 02:05:19;;;;;;;8.93;1.15;;;;;;;;;;4992699;28;20730;-61
2022/05/26 02:07:52;;;;;;;1.98;0.75;;;;;;;;;;5039815;28;20174;-61
2022/05/26 02:10:38;;;;;;;4.18;0.88;;;;;;;;;;5042725;28;20024;-61
2022/05/26 02:13:11;;;;;;;2.85;0.75;;;;;;;;;;5065364;28;20128;-61
2022/05/26 02:15:52;;;;;;;2.47;0.43;;;;;;;;;;5055010;28;20103;-61
2022/05/26 02:18:36;;;;;;;1.10;0.77;;;;;;;;;;5063375;28;20024;-61
2022/05/26 02:21:13;;;;;;;1.35;0.60;;;;;;;;;;5054854;28;20028;-61
2022/05/26 02:23:59;;;;;;;3.60;0.60;;;;;;;;;;5066498;28;20042;-61
2022/05/26 02:26:24;;;;;;;2.55;0.70;;;;;;;;;;5056174;28;20032;-60
2022/05/26 02:31:37;;;;;;;0.90;0.82;;;;;;;;;;5065818;28;20303;-61
2022/05/26 02:34:04;;;;;;;0.95;0.70;;;;;;;;;;5062276;28;20037;-61
2022/05/26 02:36:32;;;;;;;2.08;0.75;;;;;;;;;;5070804;28;20465;-61
2022/05/26 02:38:58;;;;;;;1.40;0.68;;;;;;;;;;5058115;28;20040;-61
2022/05/26 02:41:24;;;;;;;2.13;0.70;;;;;;;;;;5058582;28;20033;-61
2022/05/26 02:43:51;;;;;;;4.70;0.50;;;;;;;;;;5057331;28;20033;-61
2022/05/26 02:46:38;;;;;;;2.47;0.82;;;;;;;;;;5068638;28;20120;-61
2022/05/26 02:49:25;;;;;;;2.17;0.63;;;;;;;;;;5070893;28;20028;-61
2022/05/26 02:52:31;;;;;;;0.75;0.50;;;;;;;;;;5061736;28;20028;-61
2022/05/26 02:55:18;;;;;;;1.52;0.50;;;;;;;;;;5065380;28;20052;-61
2022/05/26 02:57:50;;;;;;;1.05;0.40;;;;;;;;;;5061753;28;20032;-61
2022/05/26 03:00:26;;;;;;;4.80;0.70;;;;;;;;;;5054602;28;20029;-61
2022/05/26 03:03:01;;;;;;;1.65;0.65;;;;;;;;;;5054147;28;20032;-60
2022/05/26 03:05:56;;;;;;;1.05;0.75;;;;;;;;;;5053748;28;20032;-61
2022/05/26 03:08:24;;;;;;;2.00;0.70;;;;;;;;;;5054760;28;20029;-61
2022/05/26 03:10:53;;;;;;;0.80;0.47;;;;;;;;;;5055930;28;20063;-60
2022/05/26 03:13:19;;;;;;;2.95;1.00;;;;;;;;;;5062644;28;20025;-61
2022/05/26 03:15:45;;;;;;;4.95;0.40;;;;;;;;;;5066653;28;20113;-61
2022/05/26 03:18:11;;;;;;;2.70;0.93;;;;;;;;;;5062251;28;20028;-62
2022/05/26 03:20:37;;;;;;;0.45;0.45;;;;;;;;;;5054203;28;20556;-61
2022/05/26 03:23:04;;;;;;;3.65;0.55;;;;;;;;;;5060482;28;20032;-61
2022/05/26 03:25:30;;;;;;;2.00;0.60;;;;;;;;;;5061705;28;20440;-61
2022/05/26 03:27:55;;;;;;;2.53;0.75;;;;;;;;;;5056012;28;20036;-61
2022/05/26 03:30:21;;;;;;;2.20;0.70;;;;;;;;;;5059425;28;20115;-61
2022/05/26 03:32:47;;;;;;;6.60;0.60;;;;;;;;;;5053288;28;20032;-61
2022/05/26 03:40:46;;;;;;;6.38;0.90;;;;;;;;;;5061483;28;20028;-61
2022/05/26 03:43:13;;;;;;;1.00;1.00;;;;;;;;;;5056034;28;20037;-61
2022/05/26 03:45:39;;;;;;;3.42;0.70;;;;;;;;;;5060764;28;20083;-61
2022/05/26 03:48:06;;;;;;;3.75;0.73;;;;;;;;;;5046196;28;20024;-61
2022/05/26 03:50:33;;;;;;;1.50;0.50;;;;;;;;;;5057402;28;20036;-61
2022/05/26 03:52:59;;;;;;;2.78;1.38;;;;;;;;;;5068432;28;20032;-61
2022/05/26 03:55:25;;;;;;;6.30;0.70;;;;;;;;;;5062578;28;20047;-62
2022/05/26 03:57:52;;;;;;;5.72;0.50;;;;;;;;;;5063167;28;21018;-61
2022/05/26 04:00:21;;;;;;;2.20;0.95;;;;;;;;;;5056455;28;20029;-61
2022/05/26 04:02:48;;;;;;;4.72;0.75;;;;;;;;;;5060837;28;20033;-60
2022/05/26 04:05:13;;;;;;;1.73;0.52;;;;;;;;;;5064835;28;20482;-61
2022/05/26 04:07:39;;;;;;;1.17;0.45;;;;;;;;;;5064486;28;20033;-60
2022/05/26 04:10:07;;;;;;;0.68;0.57;;;;;;;;;;5056156;28;20025;-60
2022/05/26 04:12:33;;;;;;;1.08;0.70;;;;;;;;;;5058892;28;20168;-60
2022/05/26 04:15:00;;;;;;;1.38;0.88;;;;;;;;;;5071456;28;20085;-61
2022/05/26 04:17:26;;;;;;;3.08;0.57;;;;;;;;;;5071106;28;20028;-60
2022/05/26 04:19:52;;;;;;;1.38;0.70;;;;;;;;;;5056553;28;20051;-61
2022/05/26 04:22:18;;;;;;;1.13;0.63;;;;;;;;;;5069686;28;20476;-60
2022/05/26 04:24:46;;;;;;;1.48;0.80;;;;;;;;;;5067263;28;20119;-61
2022/05/26 04:27:13;;;;;;;1.77;0.52;;;;;;;;;;5072364;28;20047;-61
2022/05/26 04:29:39;;;;;;;0.57;0.50;;;;;;;;;;5063201;28;20367;-60
2022/05/26 04:32:05;;;;;;;1.60;1.10;;;;;;;;;;5065593;28;20027;-59
2022/05/26 04:34:31;;;;;;;10.55;1.25;;;;;;;;;;5065846;28;20048;-61
2022/05/26 04:36:57;;;;;;;1.30;0.68;;;;;;;;;;5062504;28;20477;-61
2022/05/26 04:39:22;;;;;;;2.95;1.02;;;;;;;;;;5064500;28;20464;-61
2022/05/26 04:41:48;;;;;;;2.20;0.80;;;;;;;;;;5064150;28;20457;-61
2022/05/26 04:44:17;;;;;;;1.40;1.00;;;;;;;;;;5064900;28;20025;-61
2022/05/26 04:46:42;;;;;;;4.30;1.60;;;;;;;;;;5060948;28;20163;-61
2022/05/26 04:49:08;;;;;;;2.53;1.10;;;;;;;;;;5062562;28;20556;-61
2022/05/26 04:51:36;;;;;;;4.18;1.77;;;;;;;;;;5064116;28;20043;-61
2022/05/26 04:54:03;;;;;;;7.15;1.33;;;;;;;;;;5057522;28;20047;-61
2022/05/26 04:56:29;;;;;;;1.75;0.75;;;;;;;;;;5061812;28;20081;-61
2022/05/26 04:58:55;;;;;;;4.35;1.10;;;;;;;;;;5058859;28;20037;-60
2022/05/26 05:01:22;;;;;;;3.85;1.00;;;;;;;;;;5066095;28;20086;-61
2022/05/26 05:03:48;;;;;;;3.42;0.68;;;;;;;;;;5068379;28;20036;-61
2022/05/26 05:06:15;;;;;;;3.92;0.90;;;;;;;;;;5058388;28;20370;-61
2022/05/26 05:08:41;;;;;;;5.25;0.88;;;;;;;;;;5064012;28;20033;-61
2022/05/26 05:11:11;;;;;;;1.48;0.70;;;;;;;;;;5055029;28;20143;-60
2022/05/26 05:13:38;;;;;;;1.48;0.60;;;;;;;;;;5054314;28;20045;-61
2022/05/26 05:16:09;;;;;;;0.93;0.80;;;;;;;;;;5069801;28;20029;-61
2022/05/26 05:18:35;;;;;;;4.47;1.03;;;;;;;;;;5062316;28;20123;-61
2022/05/26 05:21:08;;;;;;;3.25;0.80;;;;;;;;;;5054246;28;20377;-60
2022/05/26 05:23:39;;;;;;;2.10;0.50;;;;;;;;;;5060761;28;20025;-61
2022/05/26 05:26:07;;;;;;;1.77;0.82;;;;;;;;;;5057567;28;20450;-61
2022/05/26 05:28:37;;;;;;;2.35;0.88;;;;;;;;;;5061102;28;20040;-61
2022/05/26 05:31:09;;;;;;;1.10;0.60;;;;;;;;;;5059328;28;20407;-61
2022/05/26 05:34:07;;;;;;;2.80;0.93;;;;;;;;;;5063735;28;20025;-61
2022/05/26 05:36:35;;;;;;;6.00;0.90;;;;;;;;;;5048984;28;20529;-61
2022/05/26 05:39:03;;;;;;;2.70;0.70;;;;;;;;;;5060995;28;20085;-61
2022/05/26 05:41:31;;;;;;;1.88;0.70;;;;;;;;;;5062267;28;20378;-61
2022/05/26 05:43:57;;;;;;;0.43;0.40;;;;;;;;;;5063706;28;20046;-60
2022/05/26 05:46:23;;;;;;;1.48;0.73;;;;;;;;;;5064316;28;20029;-61
2022/05/26 05:48:49;;;;;;;2.97;0.63;;;;;;;;;;5069104;28;20039;-61
2022/05/26 05:51:16;;;;;;;1.30;0.80;;;;;;;;;;5059598;28;20108;-61
2022/05/26 05:53:42;;;;;;;0.85;0.68;;;;;;;;;;5057709;28;20044;-61
2022/05/26 05:56:09;;;;;;;1.50;0.70;;;;;;;;;;5017282;28;1383834;-60
2022/05/26 05:58:34;;;;;;;0.85;0.70;;;;;;;;;;5056019;28;20041;-61
2022/05/26 06:01:00;;;;;;;0.93;0.60;;;;;;;;;;5048879;28;20451;-61
2022/05/26 06:03:34;;;;;;;1.50;0.80;;;;;;;;;;5061392;28;20036;-60
2022/05/26 06:06:00;;;;;;;2.85;0.80;;;;;;;;;;5059850;28;20047;-60
2022/05/26 06:08:26;;;;;;;2.55;0.55;;;;;;;;;;5060120;28;20043;-61
2022/05/26 06:10:52;;;;;;;3.50;0.80;;;;;;;;;;5062730;28;20024;-61
2022/05/26 06:13:18;;;;;;;5.68;1.27;;;;;;;;;;5070219;28;20426;-61
2022/05/26 06:15:46;;;;;;;0.57;0.47;;;;;;;;;;5059714;28;20029;-61
2022/05/26 06:18:13;;;;;;;1.23;0.52;;;;;;;;;;5074785;28;20035;-61
2022/05/26 06:20:38;;;;;;;2.95;0.50;;;;;;;;;;5062126;28;20024;-60
2022/05/26 06:23:04;;;;;;;5.22;0.90;;;;;;;;;;5057716;28;20483;-60
2022/05/26 06:25:30;;;;;;;1.83;0.43;;;;;;;;;;5062704;28;20036;-61
2022/05/26 06:30:40;;;;;;;1.90;0.80;;;;;;;;;;5061072;28;20056;-61
2022/05/26 06:38:41;;;;;;;3.50;0.50;;;;;;;;;;5055390;28;20107;-60
2022/05/26 06:43:55;;;;;;;1.00;0.80;;;;;;;;;;5052749;28;20021;-61
2022/05/26 06:46:20;;;;;;;2.67;0.90;;;;;;;;;;5061796;28;20044;-61
2022/05/26 06:48:47;;;;;;;2.35;0.88;;;;;;;;;;5067032;28;20034;-61
2022/05/26 06:51:13;;;;;;;4.57;1.63;;;;;;;;;;5063649;28;20423;-60
2022/05/26 06:53:39;;;;;;;4.55;0.80;;;;;;;;;;5062899;28;20020;-61
2022/05/26 06:56:05;;;;;;;8.32;1.05;;;;;;;;;;5059823;28;20134;-58
2022/05/26 06:58:31;;;;;;;1.65;0.85;;;;;;;;;;5055307;28;20032;-61
2022/05/26 07:00:58;;;;;;;5.28;1.30;;;;;;;;;;5060836;28;20032;-61
2022/05/26 07:03:24;;;;;;;3.63;0.88;;;;;;;;;;5058448;28;20024;-61
2022/05/26 07:05:50;;;;;;;3.75;0.63;;;;;;;;;;5052924;28;20033;-61
2022/05/26 07:08:17;;;;;;;1.00;0.70;;;;;;;;;;5058154;28;20041;-61
2022/05/26 07:10:45;;;;;;;2.47;0.73;;;;;;;;;;5059876;28;20033;-61
2022/05/26 07:13:12;;;;;;;3.67;0.85;;;;;;;;;;5059280;28;20464;-61
2022/05/26 07:15:38;;;;;;;3.78;1.05;;;;;;;;;;5059384;28;20059;-61
2022/05/26 07:18:06;;;;;;;2.58;1.00;;;;;;;;;;5058008;28;20057;-61
2022/05/26 07:20:33;;;;;;;4.47;0.70;;;;;;;;;;5066356;28;20078;-61
2022/05/26 07:22:59;;;;;;;2.63;0.70;;;;;;;;;;5066662;28;20017;-61
2022/05/26 07:25:25;;;;;;;2.00;0.73;;;;;;;;;;5060745;28;20036;-60
2022/05/26 07:27:51;;;;;;;3.17;0.90;;;;;;;;;;5067865;28;20127;-61
2022/05/26 07:30:17;;;;;;;1.67;0.90;;;;;;;;;;5060737;28;20060;-61
2022/05/26 07:32:43;;;;;;;1.17;0.77;;;;;;;;;;5060887;28;20060;-61
2022/05/26 07:35:08;;;;;;;3.00;0.82;;;;;;;;;;5051856;28;20032;-61
2022/05/26 07:43:08;;;;;;;0.98;0.80;;;;;;;;;;5066363;28;20041;-61
2022/05/26 07:45:37;;;;;;;3.03;0.60;;;;;;;;;;5057778;28;20116;-61
2022/05/26 07:48:03;;;;;;;1.67;0.75;;;;;;;;;;5058959;28;20082;-61
2022/05/26 07:50:29;;;;;;;1.08;0.70;;;;;;;;;;5065327;28;20035;-61
2022/05/26 07:52:55;;;;;;;2.85;0.68;;;;;;;;;;5055234;28;20032;-61
2022/05/26 07:55:21;;;;;;;2.67;0.85;;;;;;;;;;5061714;28;20036;-61
2022/05/26 07:57:47;;;;;;;2.58;1.20;;;;;;;;;;5056325;28;20035;-61
2022/05/26 08:00:14;;;;;;;1.48;0.95;;;;;;;;;;5059011;28;20565;-61
2022/05/26 08:02:40;;;;;;;4.35;1.20;;;;;;;;;;5059851;28;20025;-61
2022/05/26 08:05:08;;;;;;;4.68;1.20;;;;;;;;;;5069542;28;20976;-61
2022/05/26 08:07:34;;;;;;;2.67;1.30;;;;;;;;;;5056408;28;20033;-60
2022/05/26 08:10:00;;;;;;;4.22;0.95;;;;;;;;;;5068397;28;20635;-61
2022/05/26 08:12:28;;;;;;;4.45;1.20;;;;;;;;;;5049341;28;20102;-61
2022/05/26 08:14:54;;;;;;;1.20;1.10;;;;;;;;;;5052665;28;20093;-61
2022/05/26 08:17:22;;;;;;;1.80;1.40;;;;;;;;;;5055255;28;20025;-61
2022/05/26 08:19:49;;;;;;;1.20;1.10;;;;;;;;;;5057008;28;20063;-61
2022/05/26 08:22:17;;;;;;;7.35;1.00;;;;;;;;;;5054034;28;20473;-61
2022/05/26 08:24:55;;;;;;;2.72;0.90;;;;;;;;;;5056886;28;20032;-61
2022/05/26 08:27:21;;;;;;;2.80;1.00;;;;;;;;;;5059322;28;20025;-61
2022/05/26 08:29:48;;;;;;;3.50;1.38;;;;;;;;;;5056448;28;20040;-61
2022/05/26 08:32:18;;;;;;;3.15;0.93;;;;;;;;;;5060486;28;20057;-62
2022/05/26 08:34:44;;;;;;;2.45;0.82;;;;;;;;;;5064575;28;20097;-61
2022/05/26 08:37:15;;;;;;;6.05;1.00;;;;;;;;;;5071169;28;20116;-61
2022/05/26 08:39:41;;;;;;;4.50;1.10;;;;;;;;;;5055415;28;20037;-61
2022/05/26 08:42:16;;;;;;;3.05;1.20;;;;;;;;;;5052740;28;20029;-60
2022/05/26 08:44:42;;;;;;;4.07;2.40;;;;;;;;;;5056299;28;20131;-61
2022/05/26 08:47:11;;;;;;;1.25;0.95;;;;;;;;;;5050861;28;20072;-61
2022/05/26 08:49:56;;;;;;;11.00;1.48;;;;;;;;;;5062615;28;20029;-61
2022/05/26 08:52:44;;;;;;;8.27;1.45;;;;;;;;;;5063375;28;20028;-61
2022/05/26 08:55:19;;;;;;;3.40;1.33;;;;;;;;;;5061279;28;20041;-61
2022/05/26 08:57:57;;;;;;;3.67;1.10;;;;;;;;;;5074896;28;20024;-61
2022/05/26 09:00:24;;;;;;;7.30;1.30;;;;;;;;;;5057151;28;20028;-61
2022/05/26 09:02:55;;;;;;;2.28;1.00;;;;;;;;;;5058158;28;20040;-61
2022/05/26 09:05:21;;;;;;;1.92;1.17;;;;;;;;;;5057368;28;20078;-61
2022/05/26 09:13:47;;;;;;;3.50;1.40;;;;;;;;;;4987035;28;20035;-62
2022/05/26 09:16:13;;;;;;;4.50;1.17;;;;;;;;;;4994228;28;20450;-61
2022/05/26 09:18:40;;;;;;;3.17;1.02;;;;;;;;;;4981101;28;20698;-61
2022/05/26 09:21:19;;;;;;;1.25;1.08;;;;;;;;;;4985856;28;20114;-61
2022/05/26 09:23:47;;;;;;;10.18;2.45;;;;;;;;;;4983253;28;20041;-61
2022/05/26 09:26:17;;;;;;;1.50;1.20;;;;;;;;;;4986774;28;20042;-61
2022/05/26 09:28:48;;;;;;;2.83;1.42;;;;;;;;;;4989332;28;20035;-62
2022/05/26 09:31:16;;;;;;;5.28;1.30;;;;;;;;;;4995696;28;20503;-61
2022/05/26 09:33:42;;;;;;;4.13;1.20;;;;;;;;;;4986357;28;20043;-62
2022/05/26 09:36:23;;;;;;;9.05;1.88;;;;;;;;;;4992336;28;20068;-61
2022/05/26 09:38:49;;;;;;;1.90;1.10;;;;;;;;;;4985490;28;20969;-61
2022/05/26 09:41:16;;;;;;;4.75;1.20;;;;;;;;;;4986265;28;20027;-62
2022/05/26 09:43:58;;;;;;;8.98;1.77;;;;;;;;;;4989933;28;20129;-61
2022/05/26 09:46:26;;;;;;;2.88;1.58;;;;;;;;;;4984776;28;20030;-62
2022/05/26 09:48:58;;;;;;;2.70;1.30;;;;;;;;;;5007468;28;20047;-61
2022/05/26 09:51:27;;;;;;;10.40;3.05;;;;;;;;;;5066372;28;20043;-61
2022/05/26 09:53:55;;;;;;;6.88;2.22;;;;;;;;;;5060066;28;20021;-61
2022/05/26 09:56:42;;;;;;;4.88;1.95;;;;;;;;;;5061211;28;20052;-61
2022/05/26 09:59:30;;;;;;;11.10;1.70;;;;;;;;;;5065100;28;20036;-61
2022/05/26 10:02:09;;;;;;;16.15;2.65;;;;;;;;;;5054908;28;20393;-61
2022/05/26 10:05:13;;;;;;;6.60;1.60;;;;;;;;;;5060983;28;20036;-61
2022/05/26 10:07:57;;;;;;;4.57;1.55;;;;;;;;;;5053841;28;20032;-61
2022/05/26 10:10:37;;;;;;;6.07;1.70;;;;;;;;;;5064741;28;20469;-61
2022/05/26 10:13:23;;;;;;;5.03;1.50;;;;;;;;;;5054029;28;20079;-61
2022/05/26 10:15:55;;;;;;;6.68;1.55;;;;;;;;;;5062598;28;20043;-61
2022/05/26 10:18:39;;;;;;;6.18;1.13;;;;;;;;;;5057927;28;20021;-61
2022/05/26 10:21:16;;;;;;;4.35;1.52;;;;;;;;;;5062096;28;20174;-61
2022/05/26 10:24:12;;;;;;;7.10;1.25;;;;;;;;;;5052074;28;20029;-61
2022/05/26 10:27:17;;;;;;;5.20;1.23;;;;;;;;;;5057417;28;20028;-61
2022/05/26 10:30:13;;;;;;;5.70;1.40;;;;;;;;;;5060767;28;20111;-61
2022/05/26 10:32:46;;;;;;;7.03;1.40;;;;;;;;;;5060242;28;20092;-61
2022/05/26 10:35:24;;;;;;;4.07;1.30;;;;;;;;;;5059336;28;20552;-61
2022/05/26 10:38:10;;;;;;;3.65;1.10;;;;;;;;;;5057038;28;20031;-61
2022/05/26 10:41:00;;;;;;;16.48;1.95;;;;;;;;;;5058630;28;20052;-61
2022/05/26 10:43:38;;;;;;;6.15;1.77;;;;;;;;;;5065210;28;20424;-61
2022/05/26 10:46:06;;;;;;;2.00;1.20;;;;;;;;;;5065841;28;20032;-61
2022/05/26 10:49:03;;;;;;;3.05;1.77;;;;;;;;;;5060532;28;20029;-62
2022/05/26 10:51:43;;;;;;;5.78;1.50;;;;;;;;;;5055382;28;20024;-62
2022/05/26 10:54:14;;;;;;;3.92;1.40;;;;;;;;;;5058781;28;20114;-61
2022/05/26 10:56:47;;;;;;;21.57;2.13;;;;;;;;;;5054938;28;20071;-62
2022/05/26 10:59:19;;;;;;;4.38;1.30;;;;;;;;;;5062930;28;20032;-61
2022/05/26 11:01:51;;;;;;;3.92;1.63;;;;;;;;;;5057862;28;20083;-61
2022/05/26 11:04:42;;;;;;;4.43;1.65;;;;;;;;;;5061782;28;20055;-61
2022/05/26 11:07:17;;;;;;;2.78;1.63;;;;;;;;;;5053828;28;20048;-61
2022/05/26 11:09:56;;;;;;;4.80;1.60;;;;;;;;;;5057882;28;20093;-62
2022/05/26 11:12:43;;;;;;;3.00;1.13;;;;;;;;;;5058650;28;20020;-61
2022/05/26 11:18:18;;;;;;;8.10;1.98;;;;;;;;;;5055641;28;20056;-62
2022/05/26 11:20:57;;;;;;;17.30;2.80;;;;;;;;;;5057845;28;20105;-62
2022/05/26 11:23:26;;;;;;;11.85;1.90;;;;;;;;;;5056277;28;20024;-61
2022/05/26 11:26:02;;;;;;;12.50;1.90;;;;;;;;;;5057991;28;20032;-62
2022/05/26 11:28:53;;;;;;;5.05;1.60;;;;;;;;;;5059311;28;20505;-62
2022/05/26 11:37:00;;;;;;;;;;;;;;;;;;5064977;28;20043;-62
2022/05/26 11:39:40;;;;;;;7.13;2.00;;;;;;;;;;5062353;28;20357;-57
2022/05/26 11:42:46;;;;;;;4.65;1.63;;;;;;;;;;5059132;28;20162;-61
2022/05/26 11:45:30;;;;;;;8.70;1.80;;;;;;;;;;4999398;28;20048;-62
2022/05/26 11:48:04;;;;;;;5.53;2.13;;;;;;;;;;5002985;28;20036;-62
2022/05/26 11:50:35;;;;;;;3.35;2.00;;;;;;;;;;5002685;28;20084;-62
2022/05/26 11:53:05;;;;;;;8.45;2.08;;;;;;;;;;5000203;28;20781;-62
2022/05/26 11:55:52;;;;;;;6.72;1.80;;;;;;;;;;4980546;28;20081;-62
2022/05/26 11:58:40;;;;;;;8.52;1.65;;;;;;;;;;4997971;28;20090;-62
2022/05/26 12:01:22;;;;;;;3.38;1.63;;;;;;;;;;5004948;28;20116;-62
2022/05/26 12:04:16;;;;;;;4.30;1.75;;;;;;;;;;5002721;28;20091;-62
2022/05/26 12:07:01;;;;;;;4.22;1.67;;;;;;;;;;4995507;28;20077;-62
2022/05/26 12:09:29;;;;;;;2.67;1.65;;;;;;;;;;5001492;28;20041;-61
2022/05/26 12:11:59;;;;;;;7.15;1.75;;;;;;;;;;5000687;28;20033;-61
2022/05/26 12:14:46;;;;;;;3.90;1.40;;;;;;;;;;5003838;28;20124;-62
2022/05/26 12:17:30;;;;;;;9.60;1.77;;;;;;;;;;5058324;28;20024;-61
2022/05/26 12:20:11;;;;;;;4.35;1.63;;;;;;;;;;5061025;28;20033;-61
2022/05/26 12:22:41;;;;;;;4.65;1.50;;;;;;;;;;5060417;28;20024;-61
2022/05/26 12:25:20;;;;;;;9.90;1.93;;;;;;;;;;5057046;28;20037;-61
2022/05/26 12:27:53;;;;;;;3.15;1.20;;;;;;;;;;5062923;28;20037;-61
2022/05/26 12:30:44;;;;;;;4.40;1.50;;;;;;;;;;5068233;28;20112;-62
2022/05/26 12:33:13;;;;;;;6.13;1.65;;;;;;;;;;5072906;28;20093;-61
2022/05/26 12:36:22;;;;;;;4.75;1.48;;;;;;;;;;5058080;28;20497;-62
2022/05/26 12:39:25;;;;;;;4.85;1.60;;;;;;;;;;5062402;28;20048;-61
2022/05/26 12:41:53;;;;;;;3.03;1.40;;;;;;;;;;5066653;28;20027;-62
2022/05/26 12:44:41;;;;;;;6.20;1.50;;;;;;;;;;5059651;28;20047;-61
2022/05/26 12:47:10;;;;;;;4.35;1.33;;;;;;;;;;5062471;28;20035;-61
2022/05/26 12:50:01;;;;;;;7.20;1.38;;;;;;;;;;5064280;28;20036;-62
2022/05/26 12:52:37;;;;;;;3.05;1.30;;;;;;;;;;5059700;28;20397;-62
2022/05/26 12:55:12;;;;;;;2.10;1.55;;;;;;;;;;5069407;28;20044;-62
2022/05/26 12:57:45;;;;;;;11.57;1.63;;;;;;;;;;5056857;28;20028;-62
2022/05/26 13:00:42;;;;;;;3.75;1.58;;;;;;;;;;5062508;28;20033;-62
2022/05/26 13:03:13;;;;;;;3.92;1.35;;;;;;;;;;5042290;28;20119;-61
2022/05/26 13:05:44;;;;;;;3.60;1.60;;;;;;;;;;5055875;28;20384;-62
2022/05/26 13:08:19;;;;;;;6.85;1.73;;;;;;;;;;5063290;28;20032;-61
2022/05/26 13:10:46;;;;;;;4.40;1.70;;;;;;;;;;5072610;28;20028;-62
2022/05/26 13:13:33;;;;;;;3.85;1.60;;;;;;;;;;5068053;28;20048;-62
2022/05/26 13:16:23;;;;;;;7.43;1.90;;;;;;;;;;5067059;28;20423;-62
2022/05/26 13:18:49;;;;;;;3.80;1.23;;;;;;;;;;5061664;28;20051;-62
2022/05/26 13:21:21;;;;;;;13.20;1.80;;;;;;;;;;5063740;28;20032;-62
2022/05/26 13:23:50;;;;;;;4.30;1.92;;;;;;;;;;5062019;28;20043;-62
2022/05/26 13:26:18;;;;;;;4.82;1.63;;;;;;;;;;5063151;28;20028;-62
2022/05/26 13:28:49;;;;;;;7.20;1.90;;;;;;;;;;5059884;28;20152;-62
2022/05/26 13:34:05;;;;;;;8.40;1.63;;;;;;;;;;5062925;28;20029;-62
2022/05/26 13:36:38;;;;;;;3.38;1.40;;;;;;;;;;5057224;28;20612;-62
2022/05/26 13:39:12;;;;;;;6.65;1.90;;;;;;;;;;5065929;28;20124;-62
2022/05/26 13:41:41;;;;;;;6.45;1.60;;;;;;;;;;5056866;28;20041;-62
2022/05/26 13:44:13;;;;;;;7.30;1.80;;;;;;;;;;5056775;28;20033;-61
2022/05/26 13:46:47;;;;;;;4.45;1.48;;;;;;;;;;5044743;28;20402;-62
2022/05/26 13:49:28;;;;;;;4.35;1.73;;;;;;;;;;5059577;28;20037;-62
2022/05/26 13:51:54;;;;;;;4.78;1.42;;;;;;;;;;5062452;28;20098;-62
2022/05/26 13:54:40;;;;;;;11.70;1.60;;;;;;;;;;5057779;28;20075;-62
2022/05/26 13:57:40;;;;;;;9.38;2.00;;;;;;;;;;5053535;28;20032;-63
2022/05/26 14:00:23;;;;;;;6.95;1.40;;;;;;;;;;5055896;28;20068;-62
2022/05/26 14:02:52;;;;;;;10.25;1.67;;;;;;;;;;5044134;28;20028;-62
2022/05/26 14:05:21;;;;;;;8.20;1.38;;;;;;;;;;5062259;28;20029;-62
2022/05/26 14:07:59;;;;;;;5.68;1.40;;;;;;;;;;5052549;28;20035;-62
2022/05/26 14:10:35;;;;;;;14.30;2.20;;;;;;;;;;5067699;28;20746;-62
2022/05/26 14:13:15;;;;;;;5.78;1.85;;;;;;;;;;5062353;28;20524;-62
2022/05/26 14:15:48;;;;;;;1.77;1.23;;;;;;;;;;5067588;28;20035;-62
2022/05/26 14:18:40;;;;;;;7.13;1.85;;;;;;;;;;5055014;28;20036;-63
2022/05/26 14:21:12;;;;;;;5.07;1.73;;;;;;;;;;5058626;28;20128;-62
2022/05/26 14:24:19;;;;;;;5.00;1.50;;;;;;;;;;5064841;28;20116;-62
2022/05/26 14:27:01;;;;;;;3.83;1.50;;;;;;;;;;4998409;28;20042;-62
2022/05/26 14:29:27;;;;;;;6.50;1.50;;;;;;;;;;5004200;28;20064;-62
2022/05/26 14:32:06;;;;;;;5.07;1.40;;;;;;;;;;4998766;28;20068;-62
2022/05/26 14:34:44;;;;;;;7.55;1.88;;;;;;;;;;4992501;28;20594;-62
2022/05/26 14:37:12;;;;;;;5.20;1.60;;;;;;;;;;4997809;28;20050;-62
2022/05/26 14:39:38;;;;;;;5.82;1.90;;;;;;;;;;5000566;28;20046;-62
2022/05/26 14:42:06;;;;;;;6.13;1.70;;;;;;;;;;4998556;28;20037;-62
2022/05/26 14:44:32;;;;;;;7.22;1.80;;;;;;;;;;4994740;28;20042;-62
2022/05/26 14:46:58;;;;;;;7.32;1.95;;;;;;;;;;5000690;28;20065;-62
2022/05/26 14:49:23;;;;;;;3.40;1.45;;;;;;;;;;5003030;28;20038;-62
2022/05/26 14:51:50;;;;;;;8.98;1.48;;;;;;;;;;5001823;28;20061;-62
2022/05/26 14:57:02;;;;;;;4.82;1.73;;;;;;;;;;4996482;28;20049;-62
2022/05/26 14:59:29;;;;;;;7.10;1.77;;;;;;;;;;4998020;28;20037;-62
2022/05/26 15:01:55;;;;;;;8.35;1.60;;;;;;;;;;4992701;28;20085;-62
2022/05/26 15:04:20;;;;;;;2.95;1.50;;;;;;;;;;5048812;28;20053;-62
2022/05/26 15:06:48;;;;;;;5.45;1.58;;;;;;;;;;5056060;28;20059;-62
2022/05/26 15:09:17;;;;;;;4.10;1.55;;;;;;;;;;5068459;28;20055;-62
2022/05/26 15:11:42;;;;;;;8.35;1.70;;;;;;;;;;5062599;28;20029;-62
2022/05/26 15:14:08;;;;;;;5.50;1.35;;;;;;;;;;5055585;28;20048;-62
2022/05/26 15:16:36;;;;;;;6.05;1.60;;;;;;;;;;5064265;28;20032;-62
2022/05/26 15:19:04;;;;;;;6.13;2.25;;;;;;;;;;5058545;28;20043;-62
2022/05/26 15:21:30;;;;;;;6.25;1.80;;;;;;;;;;5059100;28;20028;-62
2022/05/26 15:23:56;;;;;;;5.03;1.50;;;;;;;;;;5065369;28;20442;-62
2022/05/26 15:26:24;;;;;;;9.95;2.03;;;;;;;;;;5057082;28;20028;-62
2022/05/26 15:28:53;;;;;;;8.57;1.55;;;;;;;;;;5057048;28;20023;-62
2022/05/26 15:31:20;;;;;;;2.28;1.38;;;;;;;;;;5057977;28;20025;-62
2022/05/26 15:33:46;;;;;;;4.13;1.60;;;;;;;;;;5059230;28;20397;-62
2022/05/26 15:36:14;;;;;;;8.18;1.58;;;;;;;;;;5051882;28;20805;-61
2022/05/26 15:38:44;;;;;;;5.03;1.42;;;;;;;;;;5054690;28;20108;-62
2022/05/26 15:41:12;;;;;;;6.63;1.45;;;;;;;;;;5061406;28;20446;-62
2022/05/26 15:43:38;;;;;;;5.15;1.92;;;;;;;;;;5051134;28;20066;-62
2022/05/26 15:46:10;;;;;;;3.08;1.95;;;;;;;;;;5055354;28;20033;-62
2022/05/26 15:48:36;;;;;;;5.78;2.03;;;;;;;;;;5057452;28;20096;-61
2022/05/26 15:51:03;;;;;;;5.07;2.00;;;;;;;;;;5062663;28;20132;-62
2022/05/26 15:53:29;;;;;;;4.40;2.45;;;;;;;;;;5066768;28;20094;-62
2022/05/26 15:56:00;;;;;;;8.68;2.42;;;;;;;;;;5058371;28;20441;-62
2022/05/26 15:58:27;;;;;;;4.85;2.08;;;;;;;;;;5069057;28;20043;-62
2022/05/26 16:00:54;;;;;;;8.75;2.60;;;;;;;;;;5058911;28;20032;-62